sensor_id;sensor_type;location;lat;lon;timestamp;P1;durP1;ratioP1;P2;durP2;ratioP2
8564;SDS011;4320;51.498;6.556;2022-08-19T00:01:38;11.25;;;8.77;;
8564;SDS011;4320;51.498;6.556;2022-08-19T00:04:07;9.20;;;8.23;;
8564;SDS011;4320;51.498;6.556;2022-08-19T00:06:34;10.30;;;8.32;;
8564;SDS011;4320;51.498;6.556;2022-08-19T00:09:02;9.63;;;8.25;;
8564;SDS011;4320;51.498;6.556;2022-08-19T00:11:29;9.30;;;8.32;;
8564;SDS011;4320;51.498;6.556;2022-08-19T00:13:56;8.77;;;7.97;;
8564;SDS011;4320;51.498;6.556;2022-08-19T00:16:23;9.50;;;8.50;;
8564;SDS011;4320;51.498;6.556;2022-08-19T00:18:49;9.32;;;8.43;;
8564;SDS011;4320;51.498;6.556;2022-08-19T00:21:15;9.70;;;8.70;;
8564;SDS011;4320;51.498;6.556;2022-08-19T00:23:41;9.77;;;8.77;;
8564;SDS011;4320;51.498;6.556;2022-08-19T00:26:08;9.70;;;8.70;;
8564;SDS011;4320;51.498;6.556;2022-08-19T00:28:36;9.30;;;7.85;;
8564;SDS011;4320;51.498;6.556;2022-08-19T00:31:03;9.77;;;8.55;;
8564;SDS011;4320;51.498;6.556;2022-08-19T00:33:30;10.10;;;8.90;;
8564;SDS011;4320;51.498;6.556;2022-08-19T00:36:00;9.00;;;8.10;;
8564;SDS011;4320;51.498;6.556;2022-08-19T00:38:27;10.02;;;8.80;;
8564;SDS011;4320;51.498;6.556;2022-08-19T00:40:52;9.85;;;8.55;;
8564;SDS011;4320;51.498;6.556;2022-08-19T00:43:20;8.73;;;7.53;;
8564;SDS011;4320;51.498;6.556;2022-08-19T00:45:48;11.15;;;8.85;;
8564;SDS011;4320;51.498;6.556;2022-08-19T00:48:15;10.93;;;8.57;;
8564;SDS011;4320;51.498;6.556;2022-08-19T00:50:41;10.20;;;9.05;;
8564;SDS011;4320;51.498;6.556;2022-08-19T00:53:12;10.65;;;9.55;;
8564;SDS011;4320;51.498;6.556;2022-08-19T00:55:40;10.23;;;9.32;;
8564;SDS011;4320;51.498;6.556;2022-08-19T00:58:11;11.85;;;9.60;;
8564;SDS011;4320;51.498;6.556;2022-08-19T01:00:40;10.45;;;9.38;;
8564;SDS011;4320;51.498;6.556;2022-08-19T01:03:09;11.32;;;9.55;;
8564;SDS011;4320;51.498;6.556;2022-08-19T01:05:37;10.73;;;8.93;;
8564;SDS011;4320;51.498;6.556;2022-08-19T01:08:06;10.32;;;8.82;;
8564;SDS011;4320;51.498;6.556;2022-08-19T01:10:35;11.52;;;10.05;;
8564;SDS011;4320;51.498;6.556;2022-08-19T01:13:04;11.25;;;10.15;;
8564;SDS011;4320;51.498;6.556;2022-08-19T01:15:32;11.15;;;9.98;;
8564;SDS011;4320;51.498;6.556;2022-08-19T01:18:01;11.00;;;9.90;;
8564;SDS011;4320;51.498;6.556;2022-08-19T01:20:32;10.07;;;9.05;;
8564;SDS011;4320;51.498;6.556;2022-08-19T01:22:59;10.95;;;9.85;;
8564;SDS011;4320;51.498;6.556;2022-08-19T01:25:33;10.85;;;9.75;;
8564;SDS011;4320;51.498;6.556;2022-08-19T01:28:14;12.70;;;9.18;;
8564;SDS011;4320;51.498;6.556;2022-08-19T01:30:51;11.38;;;10.27;;
8564;SDS011;4320;51.498;6.556;2022-08-19T01:33:18;11.43;;;10.23;;
8564;SDS011;4320;51.498;6.556;2022-08-19T01:35:45;11.88;;;10.05;;
8564;SDS011;4320;51.498;6.556;2022-08-19T01:38:22;13.25;;;9.90;;
8564;SDS011;4320;51.498;6.556;2022-08-19T01:40:49;13.05;;;11.60;;
8564;SDS011;4320;51.498;6.556;2022-08-19T01:43:15;12.38;;;11.13;;
8564;SDS011;4320;51.498;6.556;2022-08-19T01:45:41;13.88;;;12.18;;
8564;SDS011;4320;51.498;6.556;2022-08-19T01:48:07;12.85;;;11.55;;
8564;SDS011;4320;51.498;6.556;2022-08-19T01:50:34;15.30;;;11.07;;
8564;SDS011;4320;51.498;6.556;2022-08-19T01:53:00;14.00;;;11.57;;
8564;SDS011;4320;51.498;6.556;2022-08-19T01:55:29;12.82;;;11.52;;
8564;SDS011;4320;51.498;6.556;2022-08-19T01:57:55;12.10;;;10.90;;
8564;SDS011;4320;51.498;6.556;2022-08-19T02:00:25;13.07;;;10.93;;
8564;SDS011;4320;51.498;6.556;2022-08-19T02:02:52;12.40;;;11.07;;
8564;SDS011;4320;51.498;6.556;2022-08-19T02:05:18;16.17;;;12.02;;
8564;SDS011;4320;51.498;6.556;2022-08-19T02:07:46;15.25;;;11.70;;
8564;SDS011;4320;51.498;6.556;2022-08-19T02:10:14;12.93;;;11.15;;
8564;SDS011;4320;51.498;6.556;2022-08-19T02:12:42;14.25;;;11.82;;
8564;SDS011;4320;51.498;6.556;2022-08-19T02:15:09;14.02;;;12.63;;
8564;SDS011;4320;51.498;6.556;2022-08-19T02:17:35;17.48;;;13.63;;
8564;SDS011;4320;51.498;6.556;2022-08-19T02:20:00;16.95;;;14.50;;
8564;SDS011;4320;51.498;6.556;2022-08-19T02:22:26;17.15;;;15.43;;
8564;SDS011;4320;51.498;6.556;2022-08-19T02:24:53;20.10;;;16.02;;
8564;SDS011;4320;51.498;6.556;2022-08-19T02:27:19;19.23;;;16.77;;
8564;SDS011;4320;51.498;6.556;2022-08-19T02:29:47;22.75;;;18.27;;
8564;SDS011;4320;51.498;6.556;2022-08-19T02:32:14;23.05;;;18.38;;
8564;SDS011;4320;51.498;6.556;2022-08-19T02:34:40;22.10;;;19.33;;
8564;SDS011;4320;51.498;6.556;2022-08-19T02:37:06;22.38;;;19.13;;
8564;SDS011;4320;51.498;6.556;2022-08-19T02:39:52;22.48;;;19.33;;
8564;SDS011;4320;51.498;6.556;2022-08-19T02:42:18;22.92;;;19.45;;
8564;SDS011;4320;51.498;6.556;2022-08-19T02:44:43;21.73;;;19.38;;
8564;SDS011;4320;51.498;6.556;2022-08-19T02:47:09;23.70;;;20.13;;
8564;SDS011;4320;51.498;6.556;2022-08-19T02:49:35;23.35;;;20.27;;
8564;SDS011;4320;51.498;6.556;2022-08-19T02:52:01;27.55;;;21.58;;
8564;SDS011;4320;51.498;6.556;2022-08-19T02:54:27;22.48;;;19.50;;
8564;SDS011;4320;51.498;6.556;2022-08-19T02:56:53;26.27;;;22.00;;
8564;SDS011;4320;51.498;6.556;2022-08-19T02:59:19;24.63;;;22.00;;
8564;SDS011;4320;51.498;6.556;2022-08-19T03:01:45;28.30;;;23.42;;
8564;SDS011;4320;51.498;6.556;2022-08-19T03:04:13;29.08;;;23.60;;
8564;SDS011;4320;51.498;6.556;2022-08-19T03:06:41;30.08;;;23.63;;
8564;SDS011;4320;51.498;6.556;2022-08-19T03:09:09;26.63;;;23.65;;
8564;SDS011;4320;51.498;6.556;2022-08-19T03:11:35;30.10;;;24.25;;
8564;SDS011;4320;51.498;6.556;2022-08-19T03:14:02;32.45;;;25.33;;
8564;SDS011;4320;51.498;6.556;2022-08-19T03:16:30;32.58;;;26.08;;
8564;SDS011;4320;51.498;6.556;2022-08-19T03:19:04;32.17;;;25.05;;
8564;SDS011;4320;51.498;6.556;2022-08-19T03:21:30;30.65;;;25.25;;
8564;SDS011;4320;51.498;6.556;2022-08-19T03:23:58;30.85;;;25.38;;
8564;SDS011;4320;51.498;6.556;2022-08-19T03:26:26;28.50;;;24.95;;
8564;SDS011;4320;51.498;6.556;2022-08-19T03:28:52;30.23;;;25.48;;
8564;SDS011;4320;51.498;6.556;2022-08-19T03:31:19;31.55;;;25.25;;
8564;SDS011;4320;51.498;6.556;2022-08-19T03:33:47;30.00;;;24.52;;
8564;SDS011;4320;51.498;6.556;2022-08-19T03:36:18;28.63;;;24.83;;
8564;SDS011;4320;51.498;6.556;2022-08-19T03:38:48;28.45;;;24.50;;
8564;SDS011;4320;51.498;6.556;2022-08-19T03:41:20;29.27;;;25.20;;
8564;SDS011;4320;51.498;6.556;2022-08-19T03:43:47;29.20;;;24.92;;
8564;SDS011;4320;51.498;6.556;2022-08-19T03:46:18;34.25;;;24.20;;
8564;SDS011;4320;51.498;6.556;2022-08-19T03:48:52;30.55;;;24.85;;
8564;SDS011;4320;51.498;6.556;2022-08-19T03:51:24;30.45;;;25.65;;
8564;SDS011;4320;51.498;6.556;2022-08-19T03:53:56;26.83;;;23.52;;
8564;SDS011;4320;51.498;6.556;2022-08-19T03:56:22;30.85;;;24.05;;
8564;SDS011;4320;51.498;6.556;2022-08-19T03:58:50;30.75;;;24.35;;
8564;SDS011;4320;51.498;6.556;2022-08-19T04:01:18;28.77;;;24.15;;
8564;SDS011;4320;51.498;6.556;2022-08-19T04:03:46;30.88;;;25.80;;
8564;SDS011;4320;51.498;6.556;2022-08-19T04:06:14;33.70;;;25.23;;
8564;SDS011;4320;51.498;6.556;2022-08-19T04:08:46;30.70;;;25.70;;
8564;SDS011;4320;51.498;6.556;2022-08-19T04:11:14;32.65;;;26.85;;
8564;SDS011;4320;51.498;6.556;2022-08-19T04:13:42;33.30;;;25.20;;
8564;SDS011;4320;51.498;6.556;2022-08-19T04:16:11;28.75;;;24.60;;
8564;SDS011;4320;51.498;6.556;2022-08-19T04:18:37;31.58;;;25.27;;
8564;SDS011;4320;51.498;6.556;2022-08-19T04:21:03;31.27;;;24.92;;
8564;SDS011;4320;51.498;6.556;2022-08-19T04:23:30;29.92;;;24.98;;
8564;SDS011;4320;51.498;6.556;2022-08-19T04:25:56;31.52;;;25.48;;
8564;SDS011;4320;51.498;6.556;2022-08-19T04:28:22;31.48;;;26.05;;
8564;SDS011;4320;51.498;6.556;2022-08-19T04:30:50;32.42;;;25.48;;
8564;SDS011;4320;51.498;6.556;2022-08-19T04:33:18;31.20;;;23.95;;
8564;SDS011;4320;51.498;6.556;2022-08-19T04:35:47;35.90;;;25.67;;
8564;SDS011;4320;51.498;6.556;2022-08-19T04:38:15;27.38;;;24.17;;
8564;SDS011;4320;51.498;6.556;2022-08-19T04:40:43;34.72;;;25.80;;
8564;SDS011;4320;51.498;6.556;2022-08-19T04:43:30;31.73;;;25.48;;
8564;SDS011;4320;51.498;6.556;2022-08-19T04:45:56;31.88;;;25.60;;
8564;SDS011;4320;51.498;6.556;2022-08-19T04:48:23;34.33;;;25.92;;
8564;SDS011;4320;51.498;6.556;2022-08-19T04:50:52;30.85;;;25.98;;
8564;SDS011;4320;51.498;6.556;2022-08-19T04:53:23;34.70;;;26.88;;
8564;SDS011;4320;51.498;6.556;2022-08-19T04:55:53;30.85;;;25.88;;
8564;SDS011;4320;51.498;6.556;2022-08-19T04:58:20;35.65;;;26.15;;
8564;SDS011;4320;51.498;6.556;2022-08-19T05:00:45;35.10;;;27.42;;
8564;SDS011;4320;51.498;6.556;2022-08-19T05:03:11;33.33;;;27.25;;
8564;SDS011;4320;51.498;6.556;2022-08-19T05:05:38;31.70;;;27.40;;
8564;SDS011;4320;51.498;6.556;2022-08-19T05:08:05;39.15;;;29.30;;
8564;SDS011;4320;51.498;6.556;2022-08-19T05:10:34;36.50;;;27.95;;
8564;SDS011;4320;51.498;6.556;2022-08-19T05:13:03;35.47;;;28.70;;
8564;SDS011;4320;51.498;6.556;2022-08-19T05:15:29;37.70;;;28.77;;
8564;SDS011;4320;51.498;6.556;2022-08-19T05:17:55;35.95;;;28.52;;
8564;SDS011;4320;51.498;6.556;2022-08-19T05:20:39;39.83;;;29.52;;
8564;SDS011;4320;51.498;6.556;2022-08-19T05:23:23;37.97;;;29.05;;
8564;SDS011;4320;51.498;6.556;2022-08-19T05:25:49;38.20;;;29.55;;
8564;SDS011;4320;51.498;6.556;2022-08-19T05:28:16;34.83;;;27.30;;
8564;SDS011;4320;51.498;6.556;2022-08-19T05:30:43;37.53;;;30.33;;
8564;SDS011;4320;51.498;6.556;2022-08-19T05:33:10;34.65;;;28.25;;
8564;SDS011;4320;51.498;6.556;2022-08-19T05:35:40;36.03;;;29.27;;
8564;SDS011;4320;51.498;6.556;2022-08-19T05:38:06;38.83;;;29.48;;
8564;SDS011;4320;51.498;6.556;2022-08-19T05:40:37;35.80;;;29.92;;
8564;SDS011;4320;51.498;6.556;2022-08-19T05:43:04;35.28;;;28.33;;
8564;SDS011;4320;51.498;6.556;2022-08-19T05:45:30;33.85;;;28.77;;
8564;SDS011;4320;51.498;6.556;2022-08-19T05:47:56;36.97;;;30.75;;
8564;SDS011;4320;51.498;6.556;2022-08-19T05:50:23;40.40;;;32.25;;
8564;SDS011;4320;51.498;6.556;2022-08-19T05:52:50;46.65;;;34.85;;
8564;SDS011;4320;51.498;6.556;2022-08-19T05:55:16;45.47;;;34.30;;
8564;SDS011;4320;51.498;6.556;2022-08-19T05:57:41;43.47;;;35.25;;
8564;SDS011;4320;51.498;6.556;2022-08-19T06:00:07;44.65;;;34.50;;
8564;SDS011;4320;51.498;6.556;2022-08-19T06:02:35;40.17;;;34.20;;
8564;SDS011;4320;51.498;6.556;2022-08-19T06:05:02;46.17;;;34.40;;
8564;SDS011;4320;51.498;6.556;2022-08-19T06:07:28;39.65;;;33.95;;
8564;SDS011;4320;51.498;6.556;2022-08-19T06:09:54;42.80;;;35.20;;
8564;SDS011;4320;51.498;6.556;2022-08-19T06:12:21;41.45;;;33.58;;
8564;SDS011;4320;51.498;6.556;2022-08-19T06:14:58;45.35;;;34.58;;
8564;SDS011;4320;51.498;6.556;2022-08-19T06:17:24;42.58;;;34.53;;
8564;SDS011;4320;51.498;6.556;2022-08-19T06:19:51;45.13;;;35.97;;
8564;SDS011;4320;51.498;6.556;2022-08-19T06:22:16;42.90;;;34.30;;
8564;SDS011;4320;51.498;6.556;2022-08-19T06:24:42;41.42;;;34.17;;
8564;SDS011;4320;51.498;6.556;2022-08-19T06:27:08;45.28;;;35.30;;
8564;SDS011;4320;51.498;6.556;2022-08-19T06:29:34;44.92;;;34.10;;
8564;SDS011;4320;51.498;6.556;2022-08-19T06:32:01;45.10;;;34.83;;
8564;SDS011;4320;51.498;6.556;2022-08-19T06:34:29;44.88;;;34.58;;
8564;SDS011;4320;51.498;6.556;2022-08-19T06:36:57;44.53;;;33.47;;
8564;SDS011;4320;51.498;6.556;2022-08-19T06:39:29;43.63;;;33.58;;
8564;SDS011;4320;51.498;6.556;2022-08-19T06:41:59;41.95;;;34.00;;
8564;SDS011;4320;51.498;6.556;2022-08-19T06:44:27;44.85;;;35.40;;
8564;SDS011;4320;51.498;6.556;2022-08-19T06:47:03;43.22;;;34.90;;
8564;SDS011;4320;51.498;6.556;2022-08-19T06:49:30;44.00;;;35.00;;
8564;SDS011;4320;51.498;6.556;2022-08-19T06:51:57;44.00;;;34.63;;
8564;SDS011;4320;51.498;6.556;2022-08-19T06:54:24;41.60;;;33.75;;
8564;SDS011;4320;51.498;6.556;2022-08-19T06:56:50;41.45;;;33.30;;
8564;SDS011;4320;51.498;6.556;2022-08-19T06:59:19;39.15;;;32.78;;
8564;SDS011;4320;51.498;6.556;2022-08-19T07:01:48;44.40;;;32.58;;
8564;SDS011;4320;51.498;6.556;2022-08-19T07:04:16;40.08;;;32.15;;
8564;SDS011;4320;51.498;6.556;2022-08-19T07:06:43;43.42;;;34.60;;
8564;SDS011;4320;51.498;6.556;2022-08-19T07:09:11;44.70;;;32.05;;
8564;SDS011;4320;51.498;6.556;2022-08-19T07:11:38;39.17;;;32.42;;
8564;SDS011;4320;51.498;6.556;2022-08-19T07:14:10;39.42;;;31.35;;
8564;SDS011;4320;51.498;6.556;2022-08-19T07:16:37;42.90;;;33.72;;
8564;SDS011;4320;51.498;6.556;2022-08-19T07:19:03;40.53;;;31.80;;
8564;SDS011;4320;51.498;6.556;2022-08-19T07:21:28;39.13;;;29.52;;
8564;SDS011;4320;51.498;6.556;2022-08-19T07:23:55;38.20;;;29.35;;
8564;SDS011;4320;51.498;6.556;2022-08-19T07:28:51;36.83;;;28.10;;
8564;SDS011;4320;51.498;6.556;2022-08-19T07:31:19;33.45;;;26.08;;
8564;SDS011;4320;51.498;6.556;2022-08-19T07:33:48;33.60;;;26.55;;
8564;SDS011;4320;51.498;6.556;2022-08-19T07:36:16;29.92;;;23.98;;
8564;SDS011;4320;51.498;6.556;2022-08-19T07:38:44;28.13;;;23.23;;
8564;SDS011;4320;51.498;6.556;2022-08-19T07:41:13;32.83;;;24.70;;
8564;SDS011;4320;51.498;6.556;2022-08-19T07:43:41;32.40;;;25.88;;
8564;SDS011;4320;51.498;6.556;2022-08-19T07:46:08;33.47;;;25.58;;
8564;SDS011;4320;51.498;6.556;2022-08-19T07:48:35;37.50;;;27.73;;
8564;SDS011;4320;51.498;6.556;2022-08-19T07:51:02;40.60;;;29.23;;
8564;SDS011;4320;51.498;6.556;2022-08-19T07:53:30;38.58;;;29.23;;
8564;SDS011;4320;51.498;6.556;2022-08-19T07:55:58;46.85;;;33.30;;
8564;SDS011;4320;51.498;6.556;2022-08-19T07:58:27;48.28;;;33.70;;
8564;SDS011;4320;51.498;6.556;2022-08-19T08:00:54;45.63;;;33.13;;
8564;SDS011;4320;51.498;6.556;2022-08-19T08:03:20;43.58;;;32.72;;
8564;SDS011;4320;51.498;6.556;2022-08-19T08:06:07;44.92;;;33.35;;
8564;SDS011;4320;51.498;6.556;2022-08-19T08:08:52;45.05;;;32.33;;
8564;SDS011;4320;51.498;6.556;2022-08-19T08:11:36;45.38;;;33.35;;
8564;SDS011;4320;51.498;6.556;2022-08-19T08:14:02;43.78;;;32.33;;
8564;SDS011;4320;51.498;6.556;2022-08-19T08:16:29;50.17;;;35.67;;
8564;SDS011;4320;51.498;6.556;2022-08-19T08:18:58;51.90;;;35.53;;
8564;SDS011;4320;51.498;6.556;2022-08-19T08:21:24;49.22;;;34.22;;
8564;SDS011;4320;51.498;6.556;2022-08-19T08:23:50;44.33;;;33.28;;
8564;SDS011;4320;51.498;6.556;2022-08-19T08:26:17;44.47;;;30.88;;
8564;SDS011;4320;51.498;6.556;2022-08-19T08:28:42;44.63;;;31.38;;
8564;SDS011;4320;51.498;6.556;2022-08-19T08:31:08;43.47;;;31.63;;
8564;SDS011;4320;51.498;6.556;2022-08-19T08:33:34;39.22;;;29.88;;
8564;SDS011;4320;51.498;6.556;2022-08-19T08:36:00;42.30;;;29.55;;
8564;SDS011;4320;51.498;6.556;2022-08-19T08:38:27;39.95;;;28.45;;
8564;SDS011;4320;51.498;6.556;2022-08-19T08:40:56;38.28;;;27.45;;
8564;SDS011;4320;51.498;6.556;2022-08-19T08:43:35;44.45;;;30.85;;
8564;SDS011;4320;51.498;6.556;2022-08-19T08:46:04;39.15;;;28.20;;
8564;SDS011;4320;51.498;6.556;2022-08-19T08:48:45;38.20;;;28.52;;
8564;SDS011;4320;51.498;6.556;2022-08-19T08:51:25;38.00;;;27.92;;
8564;SDS011;4320;51.498;6.556;2022-08-19T08:54:01;36.55;;;27.73;;
8564;SDS011;4320;51.498;6.556;2022-08-19T08:56:31;36.20;;;27.00;;
8564;SDS011;4320;51.498;6.556;2022-08-19T09:01:44;35.88;;;27.27;;
8564;SDS011;4320;51.498;6.556;2022-08-19T09:04:11;36.60;;;28.95;;
8564;SDS011;4320;51.498;6.556;2022-08-19T09:06:40;38.95;;;28.95;;
8564;SDS011;4320;51.498;6.556;2022-08-19T09:14:55;33.92;;;25.50;;
8564;SDS011;4320;51.498;6.556;2022-08-19T09:17:26;28.67;;;22.67;;
8564;SDS011;4320;51.498;6.556;2022-08-19T09:22:40;32.58;;;24.00;;
8564;SDS011;4320;51.498;6.556;2022-08-19T09:25:09;32.30;;;23.73;;
8564;SDS011;4320;51.498;6.556;2022-08-19T09:27:37;33.47;;;24.63;;
8564;SDS011;4320;51.498;6.556;2022-08-19T09:30:04;26.73;;;21.10;;
8564;SDS011;4320;51.498;6.556;2022-08-19T09:32:32;27.55;;;19.92;;
8564;SDS011;4320;51.498;6.556;2022-08-19T09:34:58;26.77;;;20.60;;
8564;SDS011;4320;51.498;6.556;2022-08-19T09:37:25;25.73;;;19.58;;
8564;SDS011;4320;51.498;6.556;2022-08-19T09:39:51;29.85;;;22.10;;
8564;SDS011;4320;51.498;6.556;2022-08-19T09:42:18;27.08;;;21.95;;
8564;SDS011;4320;51.498;6.556;2022-08-19T09:44:44;27.83;;;21.08;;
8564;SDS011;4320;51.498;6.556;2022-08-19T09:47:11;29.10;;;21.92;;
8564;SDS011;4320;51.498;6.556;2022-08-19T09:49:39;29.95;;;22.92;;
8564;SDS011;4320;51.498;6.556;2022-08-19T09:52:08;27.77;;;22.95;;
8564;SDS011;4320;51.498;6.556;2022-08-19T09:54:36;28.50;;;21.48;;
8564;SDS011;4320;51.498;6.556;2022-08-19T09:57:03;30.80;;;23.60;;
8564;SDS011;4320;51.498;6.556;2022-08-19T09:59:29;29.45;;;22.08;;
8564;SDS011;4320;51.498;6.556;2022-08-19T10:01:54;30.20;;;21.95;;
8564;SDS011;4320;51.498;6.556;2022-08-19T10:04:20;29.15;;;21.13;;
8564;SDS011;4320;51.498;6.556;2022-08-19T10:06:47;30.55;;;22.05;;
8564;SDS011;4320;51.498;6.556;2022-08-19T10:09:16;25.48;;;20.48;;
8564;SDS011;4320;51.498;6.556;2022-08-19T10:11:43;30.45;;;22.50;;
8564;SDS011;4320;51.498;6.556;2022-08-19T10:14:14;26.83;;;20.05;;
8564;SDS011;4320;51.498;6.556;2022-08-19T10:16:41;29.33;;;21.48;;
8564;SDS011;4320;51.498;6.556;2022-08-19T10:19:07;26.88;;;20.25;;
8564;SDS011;4320;51.498;6.556;2022-08-19T10:21:34;26.70;;;19.70;;
8564;SDS011;4320;51.498;6.556;2022-08-19T10:24:01;27.35;;;19.80;;
8564;SDS011;4320;51.498;6.556;2022-08-19T10:26:31;28.42;;;18.83;;
8564;SDS011;4320;51.498;6.556;2022-08-19T10:29:02;22.60;;;17.52;;
8564;SDS011;4320;51.498;6.556;2022-08-19T10:31:30;27.30;;;19.25;;
8564;SDS011;4320;51.498;6.556;2022-08-19T10:33:57;22.33;;;16.30;;
8564;SDS011;4320;51.498;6.556;2022-08-19T10:36:25;24.80;;;18.30;;
8564;SDS011;4320;51.498;6.556;2022-08-19T10:38:54;24.15;;;16.75;;
8564;SDS011;4320;51.498;6.556;2022-08-19T10:41:25;20.85;;;17.02;;
8564;SDS011;4320;51.498;6.556;2022-08-19T10:43:53;19.25;;;15.68;;
8564;SDS011;4320;51.498;6.556;2022-08-19T10:46:21;18.52;;;15.20;;
8564;SDS011;4320;51.498;6.556;2022-08-19T10:48:48;22.63;;;14.93;;
8564;SDS011;4320;51.498;6.556;2022-08-19T10:51:14;21.73;;;15.27;;
8564;SDS011;4320;51.498;6.556;2022-08-19T10:53:59;41.42;;;17.08;;
8564;SDS011;4320;51.498;6.556;2022-08-19T10:56:26;27.65;;;16.02;;
8564;SDS011;4320;51.498;6.556;2022-08-19T10:59:11;28.05;;;13.00;;
8564;SDS011;4320;51.498;6.556;2022-08-19T11:01:39;16.30;;;11.43;;
8564;SDS011;4320;51.498;6.556;2022-08-19T11:04:06;14.95;;;11.20;;
8564;SDS011;4320;51.498;6.556;2022-08-19T11:06:35;14.20;;;10.48;;
8564;SDS011;4320;51.498;6.556;2022-08-19T11:09:01;12.00;;;10.38;;
8564;SDS011;4320;51.498;6.556;2022-08-19T11:11:28;12.88;;;9.93;;
8564;SDS011;4320;51.498;6.556;2022-08-19T11:13:54;16.80;;;11.20;;
8564;SDS011;4320;51.498;6.556;2022-08-19T11:16:24;12.57;;;9.73;;
8564;SDS011;4320;51.498;6.556;2022-08-19T11:18:55;12.30;;;10.00;;
8564;SDS011;4320;51.498;6.556;2022-08-19T11:21:28;15.23;;;10.57;;
8564;SDS011;4320;51.498;6.556;2022-08-19T11:24:00;14.68;;;10.77;;
8564;SDS011;4320;51.498;6.556;2022-08-19T11:26:29;11.40;;;10.10;;
8564;SDS011;4320;51.498;6.556;2022-08-19T11:28:56;10.18;;;8.48;;
8564;SDS011;4320;51.498;6.556;2022-08-19T11:31:24;11.40;;;8.35;;
8564;SDS011;4320;51.498;6.556;2022-08-19T11:33:52;14.27;;;8.88;;
8564;SDS011;4320;51.498;6.556;2022-08-19T11:36:19;10.25;;;7.70;;
8564;SDS011;4320;51.498;6.556;2022-08-19T11:38:47;7.88;;;6.85;;
8564;SDS011;4320;51.498;6.556;2022-08-19T11:41:15;7.57;;;6.43;;
8564;SDS011;4320;51.498;6.556;2022-08-19T11:43:42;9.23;;;6.82;;
8564;SDS011;4320;51.498;6.556;2022-08-19T11:46:10;9.90;;;7.90;;
8564;SDS011;4320;51.498;6.556;2022-08-19T11:48:38;8.98;;;7.10;;
8564;SDS011;4320;51.498;6.556;2022-08-19T11:51:05;9.85;;;7.40;;
8564;SDS011;4320;51.498;6.556;2022-08-19T11:53:33;8.18;;;5.85;;
8564;SDS011;4320;51.498;6.556;2022-08-19T11:55:59;8.35;;;5.40;;
8564;SDS011;4320;51.498;6.556;2022-08-19T11:58:25;7.80;;;5.15;;
8564;SDS011;4320;51.498;6.556;2022-08-19T12:00:51;14.65;;;6.60;;
8564;SDS011;4320;51.498;6.556;2022-08-19T12:03:17;6.03;;;5.43;;
8564;SDS011;4320;51.498;6.556;2022-08-19T12:05:44;16.42;;;7.22;;
8564;SDS011;4320;51.498;6.556;2022-08-19T12:08:10;9.38;;;5.95;;
8564;SDS011;4320;51.498;6.556;2022-08-19T12:10:38;7.43;;;5.22;;
8564;SDS011;4320;51.498;6.556;2022-08-19T12:13:04;23.55;;;6.20;;
8564;SDS011;4320;51.498;6.556;2022-08-19T12:15:35;7.60;;;5.50;;
8564;SDS011;4320;51.498;6.556;2022-08-19T12:18:02;8.60;;;5.95;;
8564;SDS011;4320;51.498;6.556;2022-08-19T12:20:28;9.65;;;6.20;;
8564;SDS011;4320;51.498;6.556;2022-08-19T12:22:54;10.85;;;6.43;;
8564;SDS011;4320;51.498;6.556;2022-08-19T12:25:19;9.70;;;5.28;;
8564;SDS011;4320;51.498;6.556;2022-08-19T12:27:45;6.10;;;4.80;;
8564;SDS011;4320;51.498;6.556;2022-08-19T12:30:12;9.00;;;5.05;;
8564;SDS011;4320;51.498;6.556;2022-08-19T12:32:38;8.25;;;5.15;;
8564;SDS011;4320;51.498;6.556;2022-08-19T12:35:05;7.63;;;5.45;;
8564;SDS011;4320;51.498;6.556;2022-08-19T12:37:33;6.07;;;5.45;;
8564;SDS011;4320;51.498;6.556;2022-08-19T12:39:58;7.95;;;5.68;;
8564;SDS011;4320;51.498;6.556;2022-08-19T12:42:24;6.05;;;5.40;;
8564;SDS011;4320;51.498;6.556;2022-08-19T12:44:50;6.60;;;5.93;;
8564;SDS011;4320;51.498;6.556;2022-08-19T12:47:17;8.57;;;6.30;;
8564;SDS011;4320;51.498;6.556;2022-08-19T12:49:43;7.18;;;5.63;;
8564;SDS011;4320;51.498;6.556;2022-08-19T12:52:09;6.93;;;6.22;;
8564;SDS011;4320;51.498;6.556;2022-08-19T12:54:36;8.05;;;7.18;;
8564;SDS011;4320;51.498;6.556;2022-08-19T12:57:05;6.80;;;6.03;;
8564;SDS011;4320;51.498;6.556;2022-08-19T12:59:32;8.45;;;6.00;;
8564;SDS011;4320;51.498;6.556;2022-08-19T13:01:59;9.93;;;6.03;;
8564;SDS011;4320;51.498;6.556;2022-08-19T13:04:25;5.43;;;4.60;;
8564;SDS011;4320;51.498;6.556;2022-08-19T13:06:51;5.43;;;4.88;;
8564;SDS011;4320;51.498;6.556;2022-08-19T13:09:16;6.50;;;5.90;;
8564;SDS011;4320;51.498;6.556;2022-08-19T13:11:42;9.55;;;8.55;;
8564;SDS011;4320;51.498;6.556;2022-08-19T13:14:09;10.23;;;8.18;;
8564;SDS011;4320;51.498;6.556;2022-08-19T13:16:36;9.90;;;9.00;;
8564;SDS011;4320;51.498;6.556;2022-08-19T13:19:03;10.13;;;9.13;;
8564;SDS011;4320;51.498;6.556;2022-08-19T13:21:30;11.05;;;8.00;;
8564;SDS011;4320;51.498;6.556;2022-08-19T13:23:55;8.73;;;7.80;;
8564;SDS011;4320;51.498;6.556;2022-08-19T13:26:21;18.95;;;9.60;;
8564;SDS011;4320;51.498;6.556;2022-08-19T13:28:47;11.90;;;9.30;;
8564;SDS011;4320;51.498;6.556;2022-08-19T13:31:32;14.73;;;9.18;;
8564;SDS011;4320;51.498;6.556;2022-08-19T13:34:19;10.02;;;8.98;;
8564;SDS011;4320;51.498;6.556;2022-08-19T13:36:51;12.80;;;8.93;;
8564;SDS011;4320;51.498;6.556;2022-08-19T13:39:18;12.90;;;8.23;;
8564;SDS011;4320;51.498;6.556;2022-08-19T13:41:45;8.63;;;7.70;;
8564;SDS011;4320;51.498;6.556;2022-08-19T13:44:18;9.18;;;6.03;;
8564;SDS011;4320;51.498;6.556;2022-08-19T13:46:44;7.72;;;5.97;;
8564;SDS011;4320;51.498;6.556;2022-08-19T13:49:11;8.23;;;6.55;;
8564;SDS011;4320;51.498;6.556;2022-08-19T13:51:38;8.88;;;5.22;;
8564;SDS011;4320;51.498;6.556;2022-08-19T13:54:05;6.72;;;5.50;;
8564;SDS011;4320;51.498;6.556;2022-08-19T13:56:32;6.80;;;6.10;;
8564;SDS011;4320;51.498;6.556;2022-08-19T13:58:57;9.10;;;5.93;;
8564;SDS011;4320;51.498;6.556;2022-08-19T14:01:23;7.32;;;5.20;;
8564;SDS011;4320;51.498;6.556;2022-08-19T14:03:49;7.68;;;5.15;;
8564;SDS011;4320;51.498;6.556;2022-08-19T14:06:14;5.32;;;4.80;;
8564;SDS011;4320;51.498;6.556;2022-08-19T14:08:41;6.25;;;4.82;;
8564;SDS011;4320;51.498;6.556;2022-08-19T14:11:08;6.80;;;5.20;;
8564;SDS011;4320;51.498;6.556;2022-08-19T14:13:34;6.95;;;6.13;;
8564;SDS011;4320;51.498;6.556;2022-08-19T14:15:59;10.98;;;5.78;;
8564;SDS011;4320;51.498;6.556;2022-08-19T14:18:25;9.60;;;5.65;;
8564;SDS011;4320;51.498;6.556;2022-08-19T14:20:51;7.03;;;5.95;;
8564;SDS011;4320;51.498;6.556;2022-08-19T14:23:17;8.32;;;6.15;;
8564;SDS011;4320;51.498;6.556;2022-08-19T14:25:43;9.75;;;7.35;;
8564;SDS011;4320;51.498;6.556;2022-08-19T14:28:09;9.98;;;7.75;;
8564;SDS011;4320;51.498;6.556;2022-08-19T14:30:36;12.55;;;9.00;;
8564;SDS011;4320;51.498;6.556;2022-08-19T14:33:04;13.27;;;8.13;;
8564;SDS011;4320;51.498;6.556;2022-08-19T14:35:31;9.63;;;8.25;;
8564;SDS011;4320;51.498;6.556;2022-08-19T14:38:01;12.75;;;7.80;;
8564;SDS011;4320;51.498;6.556;2022-08-19T14:40:28;11.63;;;7.50;;
8564;SDS011;4320;51.498;6.556;2022-08-19T14:42:56;11.82;;;8.48;;
8564;SDS011;4320;51.498;6.556;2022-08-19T14:45:26;12.25;;;9.50;;
8564;SDS011;4320;51.498;6.556;2022-08-19T14:47:53;12.80;;;9.30;;
8564;SDS011;4320;51.498;6.556;2022-08-19T14:50:19;11.20;;;8.45;;
8564;SDS011;4320;51.498;6.556;2022-08-19T14:52:48;9.95;;;7.13;;
8564;SDS011;4320;51.498;6.556;2022-08-19T14:55:17;9.30;;;7.50;;
8564;SDS011;4320;51.498;6.556;2022-08-19T14:57:43;10.82;;;8.43;;
8564;SDS011;4320;51.498;6.556;2022-08-19T15:00:10;13.63;;;8.55;;
8564;SDS011;4320;51.498;6.556;2022-08-19T15:02:38;8.35;;;7.43;;
8564;SDS011;4320;51.498;6.556;2022-08-19T15:05:04;10.20;;;6.90;;
8564;SDS011;4320;51.498;6.556;2022-08-19T15:07:30;9.45;;;7.07;;
8564;SDS011;4320;51.498;6.556;2022-08-19T15:09:56;9.93;;;7.97;;
8564;SDS011;4320;51.498;6.556;2022-08-19T15:12:22;12.88;;;8.10;;
8564;SDS011;4320;51.498;6.556;2022-08-19T15:14:48;10.93;;;8.70;;